createdAt,value
2022-10-04T00:02:22.500Z,5.50
2022-10-04T00:04:54.647Z,11.13
2022-10-04T00:07:26.204Z,7.83
2022-10-04T00:09:57.123Z,4.37
2022-10-04T00:12:28.069Z,6.33
2022-10-04T00:14:58.829Z,8.57
2022-10-04T00:17:28.915Z,4.97
2022-10-04T00:19:57.186Z,8.83
2022-10-04T00:22:27.489Z,6.13
2022-10-04T00:25:02.987Z,6.00
2022-10-04T00:27:31.183Z,4.73
2022-10-04T00:30:16.380Z,7.00
2022-10-04T00:32:48.616Z,5.10
2022-10-04T00:35:37.777Z,4.27
2022-10-04T00:38:15.996Z,7.40
2022-10-04T00:40:48.059Z,6.87
2022-10-04T00:43:18.191Z,8.77
2022-10-04T00:45:47.876Z,4.73
2022-10-04T00:48:37.999Z,7.00
2022-10-04T00:51:09.308Z,9.73
2022-10-04T00:53:42.102Z,5.83
2022-10-04T00:56:11.787Z,8.30
2022-10-04T00:58:46.537Z,4.63
2022-10-04T01:01:14.759Z,4.93
2022-10-04T01:03:44.398Z,5.07
2022-10-04T01:06:13.628Z,6.97
2022-10-04T01:08:47.074Z,4.00
2022-10-04T01:11:17.099Z,5.20
2022-10-04T01:13:50.058Z,8.27
2022-10-04T01:16:19.690Z,6.43
2022-10-04T01:18:48.728Z,6.93
2022-10-04T01:21:27.080Z,9.07
2022-10-04T01:24:16.638Z,7.80
2022-10-04T01:26:46.983Z,4.50
2022-10-04T01:29:16.693Z,8.53
2022-10-04T01:31:46.577Z,5.90
2022-10-04T01:34:15.675Z,4.73
2022-10-04T01:36:44.174Z,10.13
2022-10-04T01:39:12.668Z,5.17
2022-10-04T01:41:48.291Z,6.50
2022-10-04T01:44:27.271Z,3.80
2022-10-04T01:46:57.087Z,5.47
2022-10-04T01:49:28.195Z,5.13
2022-10-04T01:51:59.002Z,4.30
2022-10-04T01:54:33.615Z,7.53
2022-10-04T01:57:06.673Z,5.00
2022-10-04T01:59:39.683Z,4.80
2022-10-04T02:02:09.290Z,3.43
2022-10-04T02:04:39.594Z,10.37
2022-10-04T02:07:13.294Z,7.43
2022-10-04T02:09:43.670Z,3.60
2022-10-04T02:12:16.789Z,7.37
2022-10-04T02:14:52.510Z,5.03
2022-10-04T02:17:21.632Z,5.70
2022-10-04T02:19:50.151Z,7.30
2022-10-04T02:22:18.762Z,6.70
2022-10-04T02:24:48.355Z,7.77
2022-10-04T02:27:18.024Z,5.70
2022-10-04T02:29:46.199Z,5.43
2022-10-04T02:32:33.271Z,6.03
2022-10-04T02:35:01.496Z,6.20
2022-10-04T02:37:30.336Z,6.43
2022-10-04T02:40:04.956Z,5.53
2022-10-04T02:42:40.887Z,4.57
2022-10-04T02:45:15.501Z,4.40
2022-10-04T02:47:46.264Z,5.53
2022-10-04T02:50:21.842Z,8.10
2022-10-04T02:52:52.589Z,5.47
2022-10-04T02:55:22.308Z,6.97
2022-10-04T02:57:52.469Z,6.83
2022-10-04T03:00:21.800Z,8.50
2022-10-04T03:03:08.625Z,7.43
2022-10-04T03:05:37.136Z,8.63
2022-10-04T03:08:05.895Z,7.17
2022-10-04T03:10:35.275Z,7.87
2022-10-04T03:13:05.126Z,12.60
2022-10-04T03:15:33.588Z,10.23
2022-10-04T03:18:02.255Z,9.53
2022-10-04T03:20:30.587Z,12.07
2022-10-04T03:22:58.892Z,9.97
2022-10-04T03:25:29.272Z,7.60
2022-10-04T03:27:58.776Z,9.07
2022-10-04T03:30:28.564Z,7.77
2022-10-04T03:32:56.712Z,7.63
2022-10-04T03:35:29.576Z,6.37
2022-10-04T03:37:58.389Z,8.47
2022-10-04T03:40:28.774Z,10.70
2022-10-04T03:42:57.843Z,8.03
2022-10-04T03:45:26.656Z,9.03
2022-10-04T03:47:57.010Z,9.63
2022-10-04T03:50:27.008Z,7.33
2022-10-04T03:52:56.733Z,7.53
2022-10-04T03:55:26.144Z,11.10
2022-10-04T03:57:54.332Z,8.23
2022-10-04T04:00:22.502Z,7.90
2022-10-04T04:02:51.920Z,7.30
2022-10-04T04:05:24.299Z,7.10
2022-10-04T04:07:56.228Z,7.53
2022-10-04T04:10:25.372Z,9.90
2022-10-04T04:12:56.078Z,10.33
2022-10-04T04:15:24.374Z,7.37
2022-10-04T04:17:53.977Z,9.80
2022-10-04T04:20:26.406Z,7.67
2022-10-04T04:22:59.738Z,15.57
2022-10-04T04:25:28.916Z,11.73
2022-10-04T04:28:01.856Z,12.67
2022-10-04T04:30:31.539Z,12.50
2022-10-04T04:33:01.955Z,9.37
2022-10-04T04:35:33.728Z,11.30
2022-10-04T04:38:06.396Z,10.67
2022-10-04T04:40:35.056Z,9.97
2022-10-04T04:43:04.572Z,9.87
2022-10-04T04:45:34.002Z,9.23
2022-10-04T04:48:03.866Z,10.23
2022-10-04T04:50:35.037Z,11.53
2022-10-04T04:53:06.905Z,7.67
2022-10-04T04:55:56.462Z,14.00
2022-10-04T04:58:26.247Z,12.10
2022-10-04T05:00:57.227Z,9.70
2022-10-04T05:03:25.961Z,8.77
2022-10-04T05:05:57.502Z,10.67
2022-10-04T05:08:27.594Z,11.93
2022-10-04T05:11:02.905Z,10.00
2022-10-04T05:13:34.364Z,9.07
2022-10-04T05:16:02.914Z,8.07
2022-10-04T05:18:33.017Z,10.77
2022-10-04T05:21:05.605Z,10.33
2022-10-04T05:23:34.363Z,12.53
2022-10-04T05:26:04.632Z,10.10
2022-10-04T05:28:33.160Z,10.80
2022-10-04T05:31:10.063Z,6.93
2022-10-04T05:33:40.505Z,10.90
2022-10-04T05:36:22.268Z,9.73
2022-10-04T05:38:52.454Z,10.13
2022-10-04T05:41:26.635Z,11.83
2022-10-04T05:43:56.360Z,12.40
2022-10-04T05:46:26.008Z,10.07
2022-10-04T05:48:55.440Z,10.30
2022-10-04T05:51:27.393Z,13.67
2022-10-04T05:53:59.074Z,10.77
2022-10-04T05:56:50.936Z,8.33
2022-10-04T05:59:27.236Z,9.57
2022-10-04T06:01:58.754Z,11.27
2022-10-04T06:04:33.113Z,9.07
2022-10-04T06:07:06.225Z,9.33
2022-10-04T06:09:45.270Z,15.27
2022-10-04T06:12:16.130Z,12.67
2022-10-04T06:14:54.816Z,9.33
2022-10-04T06:17:31.852Z,9.93
2022-10-04T06:20:30.185Z,9.63
2022-10-04T06:23:03.465Z,8.53
2022-10-04T06:25:34.453Z,10.90
2022-10-04T06:28:08.713Z,8.57
2022-10-04T06:30:45.205Z,5.93
2022-10-04T06:33:21.695Z,8.20
2022-10-04T06:36:10.823Z,7.70
2022-10-04T06:38:58.367Z,9.80
2022-10-04T06:41:35.580Z,7.57
2022-10-04T06:44:14.160Z,9.33
2022-10-04T06:46:46.312Z,8.00
2022-10-04T06:49:31.962Z,9.43
2022-10-04T06:52:17.515Z,10.60
2022-10-04T06:55:00.573Z,7.20
2022-10-04T06:57:40.488Z,6.60
2022-10-04T07:00:15.628Z,8.47
2022-10-04T07:02:45.301Z,11.20
2022-10-04T07:05:17.138Z,8.27
2022-10-04T07:07:47.504Z,6.17
2022-10-04T07:10:33.568Z,7.80
2022-10-04T07:13:12.409Z,5.17
2022-10-04T07:15:45.454Z,6.77
2022-10-04T07:18:16.501Z,4.30
2022-10-04T07:20:44.760Z,4.47
2022-10-04T07:23:16.799Z,5.20
2022-10-04T07:25:46.930Z,4.37
2022-10-04T07:28:35.818Z,5.90
2022-10-04T07:31:06.289Z,2.97
2022-10-04T07:33:36.597Z,6.13
2022-10-04T07:36:06.969Z,7.00
2022-10-04T07:38:39.300Z,4.77
2022-10-04T07:41:09.892Z,3.87
2022-10-04T07:43:42.616Z,6.00
2022-10-04T07:46:15.883Z,4.10
2022-10-04T07:48:44.143Z,5.13
2022-10-04T07:51:20.121Z,7.10
2022-10-04T07:53:52.068Z,6.93
2022-10-04T07:56:24.379Z,10.47
2022-10-04T07:58:59.175Z,7.63
2022-10-04T08:01:31.556Z,4.00
2022-10-04T08:04:16.097Z,5.90
2022-10-04T08:06:52.211Z,4.53
2022-10-04T08:09:26.918Z,7.13
2022-10-04T08:12:01.629Z,5.80
2022-10-04T08:14:35.696Z,7.87
2022-10-04T08:17:16.392Z,5.57
2022-10-04T08:19:48.505Z,6.23
2022-10-04T08:22:22.569Z,5.53
2022-10-04T08:24:55.248Z,4.27
2022-10-04T08:27:36.913Z,4.53
2022-10-04T08:30:10.946Z,4.90
2022-10-04T08:32:47.657Z,9.30
2022-10-04T08:35:23.252Z,7.23
2022-10-04T08:38:01.217Z,7.23
2022-10-04T08:40:44.737Z,7.77
2022-10-04T08:43:25.549Z,6.40
2022-10-04T08:46:11.179Z,6.70
2022-10-04T08:48:58.749Z,4.43
2022-10-04T08:51:41.786Z,6.63
2022-10-04T08:54:27.875Z,5.23
2022-10-04T08:57:04.975Z,5.97
2022-10-04T08:59:54.529Z,3.80
2022-10-04T09:02:49.099Z,5.93
2022-10-04T09:05:38.716Z,4.93
2022-10-04T09:08:27.506Z,4.07
2022-10-04T09:11:05.613Z,5.00
2022-10-04T09:13:49.206Z,4.40
2022-10-04T09:16:18.580Z,3.23
2022-10-04T09:19:01.673Z,3.80
2022-10-04T09:21:38.337Z,4.67
2022-10-04T09:24:24.917Z,6.17
2022-10-04T09:26:54.107Z,7.93
2022-10-04T09:29:37.394Z,4.10
2022-10-04T09:32:21.696Z,4.27
2022-10-04T09:34:58.896Z,4.47
2022-10-04T09:37:34.729Z,5.53
2022-10-04T09:40:28.600Z,5.60
2022-10-04T09:43:07.427Z,6.70
2022-10-04T09:46:05.517Z,5.67
2022-10-04T09:48:40.668Z,5.30
2022-10-04T09:51:15.676Z,5.17
2022-10-04T09:53:52.952Z,5.50
2022-10-04T09:56:28.088Z,4.70
2022-10-04T09:59:08.629Z,5.70
2022-10-04T10:01:40.755Z,3.57
2022-10-04T10:04:21.152Z,4.43
2022-10-04T10:06:53.751Z,5.03
2022-10-04T10:09:44.076Z,8.20
2022-10-04T10:12:39.455Z,4.53
2022-10-04T10:15:12.107Z,6.53
2022-10-04T10:17:44.987Z,5.90
2022-10-04T10:20:31.727Z,5.40
2022-10-04T10:23:14.896Z,4.20
2022-10-04T10:25:52.498Z,5.10
2022-10-04T10:28:30.126Z,5.27
2022-10-04T10:31:08.588Z,8.17
2022-10-04T10:33:43.723Z,3.33
2022-10-04T10:36:19.747Z,2.87
2022-10-04T10:39:11.907Z,6.53
2022-10-04T10:42:07.354Z,6.20
2022-10-04T10:44:43.382Z,6.30
2022-10-04T10:47:26.599Z,7.60
2022-10-04T10:50:04.737Z,4.57
2022-10-04T10:52:43.555Z,2.13
2022-10-04T10:55:30.596Z,2.40
2022-10-04T10:58:07.418Z,3.27
2022-10-04T11:00:43.478Z,4.60
2022-10-04T11:03:32.327Z,5.33
2022-10-04T11:06:18.663Z,6.40
2022-10-04T11:09:03.863Z,5.90
2022-10-04T11:11:41.806Z,3.80
2022-10-04T11:14:17.413Z,3.73
2022-10-04T11:17:06.611Z,5.43
2022-10-04T11:19:47.112Z,6.00
2022-10-04T11:22:32.691Z,5.43
2022-10-04T11:25:20.721Z,3.50
2022-10-04T11:27:53.397Z,5.23
2022-10-04T11:30:26.312Z,3.43
2022-10-04T11:33:12.311Z,4.47
2022-10-04T11:35:46.886Z,4.70
2022-10-04T11:38:25.094Z,3.73
2022-10-04T11:41:01.764Z,2.50
2022-10-04T11:43:41.425Z,3.87
2022-10-04T11:46:16.275Z,3.73
2022-10-04T11:48:53.779Z,4.63
2022-10-04T11:51:35.074Z,3.73
2022-10-04T11:54:21.255Z,3.63
2022-10-04T11:57:09.364Z,2.47
2022-10-04T11:59:43.603Z,7.30
2022-10-04T12:02:26.923Z,7.43
2022-10-04T12:05:08.184Z,4.10
2022-10-04T12:07:44.265Z,4.90
2022-10-04T12:10:19.863Z,4.17
2022-10-04T12:13:03.156Z,5.20
2022-10-04T12:15:54.482Z,2.93
2022-10-04T12:18:36.400Z,2.97
2022-10-04T12:21:31.332Z,3.30
2022-10-04T12:24:11.673Z,2.17
2022-10-04T12:26:59.661Z,2.77
2022-10-04T12:29:37.867Z,2.80
2022-10-04T12:32:08.179Z,5.97
2022-10-04T12:34:41.083Z,2.53
2022-10-04T12:37:16.941Z,3.83
2022-10-04T12:40:09.579Z,5.27
2022-10-04T12:42:41.056Z,3.33
2022-10-04T12:45:26.597Z,1.90
2022-10-04T12:48:03.306Z,3.47
2022-10-04T12:50:37.285Z,2.23
2022-10-04T12:53:11.927Z,2.00
2022-10-04T12:55:46.270Z,3.17
2022-10-04T12:58:19.103Z,3.47
2022-10-04T13:00:49.075Z,2.20
2022-10-04T13:03:31.907Z,2.80
2022-10-04T13:06:09.606Z,3.03
2022-10-04T13:08:46.908Z,3.47
2022-10-04T13:11:23.088Z,2.60
2022-10-04T13:14:10.789Z,4.50
2022-10-04T13:19:36.407Z,3.53
2022-10-04T13:22:44.008Z,4.90
2022-10-04T13:25:16.435Z,2.93
2022-10-04T13:27:47.933Z,4.57
2022-10-04T13:30:23.285Z,3.90
2022-10-04T13:32:56.693Z,4.03
2022-10-04T13:35:26.258Z,6.50
2022-10-04T13:38:02.093Z,2.57
2022-10-04T13:40:47.190Z,4.43
2022-10-04T13:43:25.911Z,5.20
2022-10-04T13:46:02.634Z,4.57
2022-10-04T13:48:36.113Z,3.27
2022-10-04T13:51:22.904Z,4.93
2022-10-04T13:54:17.912Z,5.17
2022-10-04T13:56:53.460Z,4.53
2022-10-04T13:59:25.039Z,4.23
2022-10-04T14:02:12.651Z,3.23
2022-10-04T14:04:59.412Z,5.33
2022-10-04T14:07:37.101Z,3.17
2022-10-04T14:10:22.199Z,5.07
2022-10-04T14:13:06.039Z,6.30
2022-10-04T14:15:55.429Z,5.53
2022-10-04T14:18:34.775Z,4.33
2022-10-04T14:21:20.539Z,4.53
2022-10-04T14:24:03.670Z,5.30
2022-10-04T14:26:46.611Z,3.57
2022-10-04T14:29:34.323Z,4.47
2022-10-04T14:32:23.333Z,5.10
2022-10-04T14:34:58.350Z,2.30
2022-10-04T14:37:53.331Z,3.97
2022-10-04T14:40:36.382Z,3.00
2022-10-04T14:43:22.202Z,5.07
2022-10-04T14:45:57.906Z,2.73
2022-10-04T14:48:36.955Z,3.10
2022-10-04T14:51:15.408Z,3.50
2022-10-04T14:53:50.238Z,3.67
2022-10-04T14:56:26.240Z,3.70
2022-10-04T14:59:01.153Z,4.07
2022-10-04T15:01:29.744Z,3.70
2022-10-04T15:04:11.871Z,3.93
2022-10-04T15:06:48.545Z,3.07
2022-10-04T15:09:25.108Z,6.37
2022-10-04T15:15:05.247Z,2.93
2022-10-04T15:17:38.019Z,4.03
2022-10-04T15:20:09.628Z,3.70
2022-10-04T15:22:43.088Z,3.37
2022-10-04T15:25:29.877Z,4.90
2022-10-04T15:27:59.079Z,4.83
2022-10-04T15:30:34.728Z,3.10
2022-10-04T15:33:19.559Z,6.70
2022-10-04T15:35:51.532Z,5.87
2022-10-04T15:38:23.855Z,4.30
2022-10-04T15:40:57.492Z,7.00
2022-10-04T15:43:28.556Z,5.00
2022-10-04T15:46:24.487Z,4.97
2022-10-04T15:49:07.977Z,5.50
2022-10-04T15:51:44.034Z,3.73
2022-10-04T15:54:17.409Z,4.60
2022-10-04T15:56:50.712Z,6.57
2022-10-04T15:59:33.397Z,5.20
2022-10-04T16:02:10.709Z,4.83
2022-10-04T16:04:43.331Z,5.27
2022-10-04T16:07:23.076Z,4.10
2022-10-04T16:09:56.596Z,3.60
2022-10-04T16:12:27.682Z,2.60
2022-10-04T16:15:14.309Z,4.83
2022-10-04T16:17:53.115Z,3.40
2022-10-04T16:20:36.145Z,4.53
2022-10-04T16:23:24.157Z,3.97
2022-10-04T16:25:52.800Z,2.87
2022-10-04T16:28:25.407Z,7.77
2022-10-04T16:31:02.531Z,7.90
2022-10-04T16:33:34.079Z,8.03
2022-10-04T16:36:20.416Z,6.53
2022-10-04T16:39:07.835Z,7.27
2022-10-04T16:41:40.133Z,3.73
2022-10-04T16:44:13.140Z,3.03
2022-10-04T16:46:46.070Z,3.83
2022-10-04T16:49:22.343Z,5.47
2022-10-04T16:52:03.313Z,3.77
2022-10-04T16:54:38.479Z,3.50
2022-10-04T16:57:14.377Z,2.80
2022-10-04T16:59:46.994Z,7.23
2022-10-04T17:02:21.351Z,5.43
2022-10-04T17:04:55.434Z,3.13
2022-10-04T17:07:30.296Z,4.17
2022-10-04T17:10:03.006Z,7.87
2022-10-04T17:12:36.776Z,6.53
2022-10-04T17:15:10.983Z,4.37
2022-10-04T17:17:48.316Z,6.57
2022-10-04T17:20:27.104Z,8.87
2022-10-04T17:23:00.784Z,7.77
2022-10-04T17:25:35.009Z,6.50
2022-10-04T17:28:13.664Z,8.77
2022-10-04T17:30:49.079Z,7.33
2022-10-04T17:33:24.069Z,8.83
2022-10-04T17:36:00.107Z,5.40
2022-10-04T17:38:31.902Z,4.10
2022-10-04T17:41:05.488Z,5.33
2022-10-04T17:43:35.684Z,6.83
2022-10-04T17:46:10.779Z,8.40
2022-10-04T17:49:01.503Z,6.00
2022-10-04T17:51:59.299Z,6.33
2022-10-04T17:54:46.245Z,6.90
2022-10-04T17:57:20.765Z,7.87
2022-10-04T17:59:51.795Z,9.33
2022-10-04T18:02:22.242Z,8.03
2022-10-04T18:04:52.505Z,10.03
2022-10-04T18:07:23.402Z,6.03
2022-10-04T18:09:53.665Z,4.70
2022-10-04T18:12:29.724Z,7.90
2022-10-04T18:15:00.937Z,6.57
2022-10-04T18:17:33.013Z,12.23
2022-10-04T18:20:28.399Z,8.10
2022-10-04T18:23:02.193Z,6.93
2022-10-04T18:25:32.018Z,9.50
2022-10-04T18:28:06.867Z,10.53
2022-10-04T18:30:35.770Z,11.20
2022-10-04T18:33:05.186Z,8.13
2022-10-04T18:35:34.971Z,8.60
2022-10-04T18:38:21.302Z,10.80
2022-10-04T18:40:56.416Z,7.23
2022-10-04T18:43:30.659Z,7.57
2022-10-04T18:46:04.374Z,9.53
2022-10-04T18:48:40.460Z,8.83
2022-10-04T18:51:24.954Z,8.97
2022-10-04T18:53:56.917Z,7.77
2022-10-04T18:56:27.601Z,8.47
2022-10-04T18:59:23.816Z,9.93
2022-10-04T19:02:07.835Z,6.60
2022-10-04T19:04:44.905Z,7.93
2022-10-04T19:07:14.997Z,8.57
2022-10-04T19:09:50.864Z,7.33
2022-10-04T19:12:22.963Z,8.97
2022-10-04T19:14:54.369Z,9.00
2022-10-04T19:17:26.768Z,7.13
2022-10-04T19:20:03.143Z,8.63
2022-10-04T19:22:38.954Z,8.20
2022-10-04T19:25:14.477Z,7.40
2022-10-04T19:27:45.246Z,7.07
2022-10-04T19:30:17.015Z,6.60
2022-10-04T19:32:51.040Z,6.57
2022-10-04T19:35:26.269Z,7.00
2022-10-04T19:37:57.973Z,7.47
2022-10-04T19:40:30.253Z,11.00
2022-10-04T19:43:04.556Z,8.67
2022-10-04T19:45:35.910Z,14.47
2022-10-04T19:48:08.410Z,14.63
2022-10-04T19:50:37.814Z,15.83
2022-10-04T19:53:08.837Z,13.57
2022-10-04T19:55:48.059Z,10.60
2022-10-04T19:58:26.499Z,8.33
2022-10-04T20:00:55.162Z,9.47
2022-10-04T20:03:23.365Z,10.70
2022-10-04T20:05:53.194Z,8.30
2022-10-04T20:08:36.225Z,7.13
2022-10-04T20:11:16.204Z,9.37
2022-10-04T20:13:44.344Z,8.13
2022-10-04T20:16:12.561Z,8.53
2022-10-04T20:18:59.461Z,6.80
2022-10-04T20:21:28.612Z,6.97
2022-10-04T20:23:57.059Z,6.77
2022-10-04T20:27:01.109Z,5.73
2022-10-04T20:29:47.824Z,9.60
2022-10-04T20:32:42.836Z,5.87
2022-10-04T20:35:11.566Z,6.17
2022-10-04T20:38:07.869Z,12.53
2022-10-04T20:40:45.823Z,7.13
2022-10-04T20:43:27.508Z,6.70
2022-10-04T20:45:57.029Z,6.23
2022-10-04T20:48:27.312Z,8.83
2022-10-04T20:50:57.324Z,5.57
2022-10-04T20:53:26.673Z,6.63
2022-10-04T20:56:11.006Z,6.90
2022-10-04T20:58:40.380Z,7.17
2022-10-04T21:01:40.017Z,5.77
2022-10-04T21:04:16.207Z,7.07
2022-10-04T21:06:53.781Z,5.93
2022-10-04T21:09:21.976Z,5.97
2022-10-04T21:11:52.102Z,11.53
2022-10-04T21:14:24.081Z,6.40
2022-10-04T21:16:54.655Z,6.23
2022-10-04T21:19:44.058Z,6.23
2022-10-04T21:22:32.280Z,8.53
2022-10-04T21:25:01.052Z,5.53
2022-10-04T21:27:30.694Z,6.00
2022-10-04T21:29:59.145Z,6.00
2022-10-04T21:32:27.935Z,9.37
2022-10-04T21:34:57.435Z,6.13
2022-10-04T21:37:25.564Z,6.70
2022-10-04T21:39:53.703Z,5.40
2022-10-04T21:42:23.624Z,9.97
2022-10-04T21:44:51.777Z,8.73
2022-10-04T21:47:21.533Z,6.83
2022-10-04T21:49:50.295Z,7.23
2022-10-04T21:52:20.076Z,6.27
2022-10-04T21:54:48.219Z,7.40
2022-10-04T21:57:16.372Z,7.33
2022-10-04T21:59:44.516Z,10.90
2022-10-04T22:02:12.363Z,9.50
2022-10-04T22:04:41.476Z,8.13
2022-10-04T22:07:10.443Z,10.40
2022-10-04T22:09:40.104Z,7.93
2022-10-04T22:12:08.390Z,7.40
2022-10-04T22:14:36.566Z,8.73
2022-10-04T22:17:04.788Z,8.00
2022-10-04T22:19:33.059Z,8.77
2022-10-04T22:22:01.214Z,8.50
2022-10-04T22:24:29.367Z,9.23
2022-10-04T22:26:59.473Z,7.07
2022-10-04T22:29:30.934Z,11.50
2022-10-04T22:31:59.105Z,9.57
2022-10-04T22:34:27.358Z,7.17
2022-10-04T22:36:55.658Z,8.90
2022-10-04T22:39:23.880Z,8.00
2022-10-04T22:41:55.071Z,9.83
2022-10-04T22:44:25.401Z,6.27
2022-10-04T22:46:54.783Z,8.80
2022-10-04T22:49:23.758Z,8.03
2022-10-04T22:51:52.936Z,8.53
2022-10-04T22:54:22.198Z,7.97
2022-10-04T22:56:50.761Z,8.00
2022-10-04T22:59:20.373Z,9.80
2022-10-04T23:01:50.140Z,12.93
2022-10-04T23:04:19.866Z,10.30
2022-10-04T23:06:48.417Z,7.63
2022-10-04T23:09:16.796Z,11.37
2022-10-04T23:11:45.234Z,9.23
2022-10-04T23:14:13.901Z,9.77
2022-10-04T23:16:42.952Z,9.47
2022-10-04T23:19:13.634Z,9.53
2022-10-04T23:21:43.697Z,10.27
2022-10-04T23:24:15.609Z,12.03
2022-10-04T23:26:44.898Z,8.33
2022-10-04T23:29:16.639Z,8.97
2022-10-04T23:31:46.189Z,7.50
2022-10-04T23:34:18.861Z,7.57
2022-10-04T23:36:47.717Z,12.77
2022-10-04T23:39:24.220Z,13.13
2022-10-04T23:41:52.811Z,10.73
2022-10-04T23:44:20.984Z,8.23
2022-10-04T23:46:49.354Z,13.43
2022-10-04T23:49:19.648Z,12.27
2022-10-04T23:51:48.700Z,6.97
2022-10-04T23:54:17.772Z,10.77
2022-10-04T23:56:46.781Z,11.53
2022-10-04T23:59:17.392Z,10.93
